sensor_id;sensor_type;location;lat;lon;timestamp;temperature;humidity
254;DHT22;590;48.772;8.846;2022-08-06T00:02:21;20.60;17.50
254;DHT22;590;48.772;8.846;2022-08-06T00:04:55;20.70;17.70
254;DHT22;590;48.772;8.846;2022-08-06T00:07:23;20.80;17.10
254;DHT22;590;48.772;8.846;2022-08-06T00:09:55;20.80;16.60
254;DHT22;590;48.772;8.846;2022-08-06T00:12:27;20.80;16.90
254;DHT22;590;48.772;8.846;2022-08-06T00:15:07;20.80;16.80
254;DHT22;590;48.772;8.846;2022-08-06T00:17:41;20.80;16.50
254;DHT22;590;48.772;8.846;2022-08-06T00:20:10;20.80;16.40
254;DHT22;590;48.772;8.846;2022-08-06T00:22:57;20.80;16.00
254;DHT22;590;48.772;8.846;2022-08-06T00:25:25;20.80;16.10
254;DHT22;590;48.772;8.846;2022-08-06T00:27:54;20.80;16.40
254;DHT22;590;48.772;8.846;2022-08-06T00:30:22;20.80;16.40
254;DHT22;590;48.772;8.846;2022-08-06T00:32:51;20.80;16.10
254;DHT22;590;48.772;8.846;2022-08-06T00:35:23;20.80;16.20
254;DHT22;590;48.772;8.846;2022-08-06T00:37:55;20.90;16.20
254;DHT22;590;48.772;8.846;2022-08-06T00:40:26;20.80;16.00
254;DHT22;590;48.772;8.846;2022-08-06T00:42:56;20.80;15.80
254;DHT22;590;48.772;8.846;2022-08-06T00:45:26;20.80;15.80
254;DHT22;590;48.772;8.846;2022-08-06T00:47:59;20.70;16.30
254;DHT22;590;48.772;8.846;2022-08-06T00:50:33;20.70;16.50
254;DHT22;590;48.772;8.846;2022-08-06T00:53:04;20.70;16.40
254;DHT22;590;48.772;8.846;2022-08-06T00:55:39;20.70;16.50
254;DHT22;590;48.772;8.846;2022-08-06T00:58:27;20.60;16.30
254;DHT22;590;48.772;8.846;2022-08-06T01:01:07;20.60;16.40
254;DHT22;590;48.772;8.846;2022-08-06T01:03:45;20.50;16.30
254;DHT22;590;48.772;8.846;2022-08-06T01:06:18;20.50;16.60
254;DHT22;590;48.772;8.846;2022-08-06T01:09:07;20.50;16.90
254;DHT22;590;48.772;8.846;2022-08-06T01:11:36;20.50;16.60
254;DHT22;590;48.772;8.846;2022-08-06T01:14:04;20.40;16.50
254;DHT22;590;48.772;8.846;2022-08-06T01:16:39;20.40;16.70
254;DHT22;590;48.772;8.846;2022-08-06T01:19:32;20.40;16.80
254;DHT22;590;48.772;8.846;2022-08-06T01:22:36;20.40;17.10
254;DHT22;590;48.772;8.846;2022-08-06T01:25:18;20.30;16.80
254;DHT22;590;48.772;8.846;2022-08-06T01:28:15;20.20;17.10
254;DHT22;590;48.772;8.846;2022-08-06T01:30:59;20.20;16.90
254;DHT22;590;48.772;8.846;2022-08-06T01:33:33;20.10;16.90
254;DHT22;590;48.772;8.846;2022-08-06T01:36:08;20.10;17.30
254;DHT22;590;48.772;8.846;2022-08-06T01:38:46;20.00;17.00
254;DHT22;590;48.772;8.846;2022-08-06T01:41:30;20.00;17.50
254;DHT22;590;48.772;8.846;2022-08-06T01:44:31;20.00;17.00
254;DHT22;590;48.772;8.846;2022-08-06T01:47:05;19.90;16.90
254;DHT22;590;48.772;8.846;2022-08-06T01:49:46;19.90;17.10
254;DHT22;590;48.772;8.846;2022-08-06T01:52:31;19.90;17.10
254;DHT22;590;48.772;8.846;2022-08-06T01:55:05;19.80;17.20
254;DHT22;590;48.772;8.846;2022-08-06T01:57:38;19.90;17.40
254;DHT22;590;48.772;8.846;2022-08-06T02:00:29;19.80;17.60
254;DHT22;590;48.772;8.846;2022-08-06T02:02:59;19.80;17.90
254;DHT22;590;48.772;8.846;2022-08-06T02:05:30;19.80;17.90
254;DHT22;590;48.772;8.846;2022-08-06T02:08:13;19.80;17.70
254;DHT22;590;48.772;8.846;2022-08-06T02:11:03;19.70;17.70
254;DHT22;590;48.772;8.846;2022-08-06T02:13:53;19.70;17.90
254;DHT22;590;48.772;8.846;2022-08-06T02:16:24;19.70;18.30
254;DHT22;590;48.772;8.846;2022-08-06T02:18:54;19.60;18.40
254;DHT22;590;48.772;8.846;2022-08-06T02:21:23;19.60;18.40
254;DHT22;590;48.772;8.846;2022-08-06T02:24:00;19.50;18.90
254;DHT22;590;48.772;8.846;2022-08-06T02:26:34;19.50;18.90
254;DHT22;590;48.772;8.846;2022-08-06T02:29:06;19.50;19.10
254;DHT22;590;48.772;8.846;2022-08-06T02:31:41;19.50;19.70
254;DHT22;590;48.772;8.846;2022-08-06T02:34:18;19.50;20.10
254;DHT22;590;48.772;8.846;2022-08-06T02:36:58;19.50;19.80
254;DHT22;590;48.772;8.846;2022-08-06T02:39:35;19.60;20.10
254;DHT22;590;48.772;8.846;2022-08-06T02:42:20;19.60;20.10
254;DHT22;590;48.772;8.846;2022-08-06T02:44:59;19.60;20.10
254;DHT22;590;48.772;8.846;2022-08-06T02:47:35;19.60;20.10
254;DHT22;590;48.772;8.846;2022-08-06T02:50:28;19.60;20.10
254;DHT22;590;48.772;8.846;2022-08-06T02:53:05;19.60;19.70
254;DHT22;590;48.772;8.846;2022-08-06T02:55:53;19.60;20.40
254;DHT22;590;48.772;8.846;2022-08-06T02:58:25;19.60;20.10
254;DHT22;590;48.772;8.846;2022-08-06T03:01:07;19.60;20.50
254;DHT22;590;48.772;8.846;2022-08-06T03:03:39;19.60;20.30
254;DHT22;590;48.772;8.846;2022-08-06T03:06:27;19.50;20.70
254;DHT22;590;48.772;8.846;2022-08-06T03:08:58;19.60;20.70
254;DHT22;590;48.772;8.846;2022-08-06T03:11:30;19.50;20.80
254;DHT22;590;48.772;8.846;2022-08-06T03:14:01;19.50;20.70
254;DHT22;590;48.772;8.846;2022-08-06T03:16:51;19.50;21.20
254;DHT22;590;48.772;8.846;2022-08-06T03:19:26;19.50;21.20
254;DHT22;590;48.772;8.846;2022-08-06T03:22:16;19.40;21.10
254;DHT22;590;48.772;8.846;2022-08-06T03:25:06;19.40;21.70
254;DHT22;590;48.772;8.846;2022-08-06T03:27:36;19.40;21.50
254;DHT22;590;48.772;8.846;2022-08-06T03:30:11;19.40;21.30
254;DHT22;590;48.772;8.846;2022-08-06T03:33:01;19.40;21.30
254;DHT22;590;48.772;8.846;2022-08-06T03:35:52;19.40;21.70
254;DHT22;590;48.772;8.846;2022-08-06T03:38:21;19.40;21.70
254;DHT22;590;48.772;8.846;2022-08-06T03:40:56;19.40;21.60
254;DHT22;590;48.772;8.846;2022-08-06T03:43:27;19.40;21.90
254;DHT22;590;48.772;8.846;2022-08-06T03:46:20;19.40;22.20
254;DHT22;590;48.772;8.846;2022-08-06T03:48:50;19.40;22.60
254;DHT22;590;48.772;8.846;2022-08-06T03:51:24;19.40;22.30
254;DHT22;590;48.772;8.846;2022-08-06T03:54:14;19.40;23.20
254;DHT22;590;48.772;8.846;2022-08-06T03:56:57;19.40;22.20
254;DHT22;590;48.772;8.846;2022-08-06T03:59:37;19.40;22.00
254;DHT22;590;48.772;8.846;2022-08-06T04:02:24;19.40;22.20
254;DHT22;590;48.772;8.846;2022-08-06T04:05:15;19.30;22.10
254;DHT22;590;48.772;8.846;2022-08-06T04:07:51;19.30;22.50
254;DHT22;590;48.772;8.846;2022-08-06T04:10:24;19.30;22.60
254;DHT22;590;48.772;8.846;2022-08-06T04:13:06;19.30;22.50
254;DHT22;590;48.772;8.846;2022-08-06T04:15:55;19.20;23.70
254;DHT22;590;48.772;8.846;2022-08-06T04:18:25;19.20;22.90
254;DHT22;590;48.772;8.846;2022-08-06T04:20:57;19.20;23.10
254;DHT22;590;48.772;8.846;2022-08-06T04:23:47;19.10;23.10
254;DHT22;590;48.772;8.846;2022-08-06T04:26:17;19.10;23.30
254;DHT22;590;48.772;8.846;2022-08-06T04:28:50;19.10;23.40
254;DHT22;590;48.772;8.846;2022-08-06T04:31:25;19.10;23.60
254;DHT22;590;48.772;8.846;2022-08-06T04:34:19;19.10;23.70
254;DHT22;590;48.772;8.846;2022-08-06T04:36:55;19.00;23.90
254;DHT22;590;48.772;8.846;2022-08-06T04:39:29;19.00;24.10
254;DHT22;590;48.772;8.846;2022-08-06T04:42:14;19.00;23.90
254;DHT22;590;48.772;8.846;2022-08-06T04:44:49;19.00;24.10
254;DHT22;590;48.772;8.846;2022-08-06T04:47:28;19.00;24.20
254;DHT22;590;48.772;8.846;2022-08-06T04:50:09;19.00;24.30
254;DHT22;590;48.772;8.846;2022-08-06T04:52:37;19.00;24.30
254;DHT22;590;48.772;8.846;2022-08-06T04:55:18;19.00;24.40
254;DHT22;590;48.772;8.846;2022-08-06T04:58:00;19.10;24.30
254;DHT22;590;48.772;8.846;2022-08-06T05:00:39;19.10;24.30
254;DHT22;590;48.772;8.846;2022-08-06T05:03:27;19.20;24.20
254;DHT22;590;48.772;8.846;2022-08-06T05:06:19;19.20;23.90
254;DHT22;590;48.772;8.846;2022-08-06T05:08:51;19.40;23.90
254;DHT22;590;48.772;8.846;2022-08-06T05:11:24;19.70;22.90
254;DHT22;590;48.772;8.846;2022-08-06T05:13:57;19.90;22.70
254;DHT22;590;48.772;8.846;2022-08-06T05:16:27;20.20;23.60
254;DHT22;590;48.772;8.846;2022-08-06T05:19:01;21.00;21.40
254;DHT22;590;48.772;8.846;2022-08-06T05:21:49;21.80;18.60
254;DHT22;590;48.772;8.846;2022-08-06T05:24:39;22.10;16.30
254;DHT22;590;48.772;8.846;2022-08-06T05:27:29;22.20;16.30
254;DHT22;590;48.772;8.846;2022-08-06T05:30:17;22.50;15.60
254;DHT22;590;48.772;8.846;2022-08-06T05:32:47;22.70;14.40
254;DHT22;590;48.772;8.846;2022-08-06T05:35:22;22.80;14.80
254;DHT22;590;48.772;8.846;2022-08-06T05:38:07;23.00;14.30
254;DHT22;590;48.772;8.846;2022-08-06T05:40:39;23.10;13.20
254;DHT22;590;48.772;8.846;2022-08-06T05:43:21;23.00;13.40
254;DHT22;590;48.772;8.846;2022-08-06T05:46:12;22.90;13.70
254;DHT22;590;48.772;8.846;2022-08-06T05:48:47;22.60;13.90
254;DHT22;590;48.772;8.846;2022-08-06T05:51:23;22.50;14.40
254;DHT22;590;48.772;8.846;2022-08-06T05:54:17;22.40;14.10
254;DHT22;590;48.772;8.846;2022-08-06T05:56:48;22.20;14.70
254;DHT22;590;48.772;8.846;2022-08-06T05:59:28;22.00;15.30
254;DHT22;590;48.772;8.846;2022-08-06T06:02:18;22.20;15.80
254;DHT22;590;48.772;8.846;2022-08-06T06:04:47;22.20;14.70
254;DHT22;590;48.772;8.846;2022-08-06T06:07:36;21.90;15.40
254;DHT22;590;48.772;8.846;2022-08-06T06:10:25;21.90;15.50
254;DHT22;590;48.772;8.846;2022-08-06T06:12:54;21.80;15.60
254;DHT22;590;48.772;8.846;2022-08-06T06:15:24;21.70;16.20
254;DHT22;590;48.772;8.846;2022-08-06T06:18:20;21.70;16.60
254;DHT22;590;48.772;8.846;2022-08-06T06:21:05;21.80;16.60
254;DHT22;590;48.772;8.846;2022-08-06T06:23:49;21.80;16.60
254;DHT22;590;48.772;8.846;2022-08-06T06:26:28;21.60;16.00
254;DHT22;590;48.772;8.846;2022-08-06T06:29:04;21.40;16.60
254;DHT22;590;48.772;8.846;2022-08-06T06:31:43;21.30;17.80
254;DHT22;590;48.772;8.846;2022-08-06T06:34:40;21.40;17.80
254;DHT22;590;48.772;8.846;2022-08-06T06:37:17;21.80;17.00
254;DHT22;590;48.772;8.846;2022-08-06T06:40:02;21.80;16.60
254;DHT22;590;48.772;8.846;2022-08-06T06:42:46;21.80;17.20
254;DHT22;590;48.772;8.846;2022-08-06T06:45:21;21.90;16.70
254;DHT22;590;48.772;8.846;2022-08-06T06:48:18;21.80;16.60
254;DHT22;590;48.772;8.846;2022-08-06T06:50:51;21.60;17.30
254;DHT22;590;48.772;8.846;2022-08-06T06:53:23;21.50;17.70
254;DHT22;590;48.772;8.846;2022-08-06T06:56:15;21.70;16.80
254;DHT22;590;48.772;8.846;2022-08-06T06:58:50;21.60;16.40
254;DHT22;590;48.772;8.846;2022-08-06T07:01:20;21.50;16.30
254;DHT22;590;48.772;8.846;2022-08-06T07:03:57;21.30;16.90
254;DHT22;590;48.772;8.846;2022-08-06T07:06:28;21.30;17.50
254;DHT22;590;48.772;8.846;2022-08-06T07:09:14;21.10;17.50
254;DHT22;590;48.772;8.846;2022-08-06T07:12:04;21.40;18.10
254;DHT22;590;48.772;8.846;2022-08-06T07:14:47;21.80;16.00
254;DHT22;590;48.772;8.846;2022-08-06T07:17:28;22.20;14.70
254;DHT22;590;48.772;8.846;2022-08-06T07:20:19;22.60;13.80
254;DHT22;590;48.772;8.846;2022-08-06T07:22:54;22.80;11.80
254;DHT22;590;48.772;8.846;2022-08-06T07:25:44;22.80;11.90
254;DHT22;590;48.772;8.846;2022-08-06T07:28:22;23.30;11.60
254;DHT22;590;48.772;8.846;2022-08-06T07:30:55;23.60;10.30
254;DHT22;590;48.772;8.846;2022-08-06T07:33:34;24.00;10.30
254;DHT22;590;48.772;8.846;2022-08-06T07:36:27;24.60;9.70
254;DHT22;590;48.772;8.846;2022-08-06T07:39:00;25.10;9.30
254;DHT22;590;48.772;8.846;2022-08-06T07:41:29;24.80;7.70
254;DHT22;590;48.772;8.846;2022-08-06T07:44:20;24.90;7.80
254;DHT22;590;48.772;8.846;2022-08-06T07:46:58;24.90;7.80
254;DHT22;590;48.772;8.846;2022-08-06T07:49:50;24.90;7.70
254;DHT22;590;48.772;8.846;2022-08-06T07:52:29;24.50;7.70
254;DHT22;590;48.772;8.846;2022-08-06T07:54:59;24.40;7.80
254;DHT22;590;48.772;8.846;2022-08-06T07:57:30;24.40;8.00
254;DHT22;590;48.772;8.846;2022-08-06T08:00:21;24.50;8.20
254;DHT22;590;48.772;8.846;2022-08-06T08:02:53;24.40;8.00
254;DHT22;590;48.772;8.846;2022-08-06T08:06:01;24.40;7.90
254;DHT22;590;48.772;8.846;2022-08-06T08:08:54;24.50;7.30
254;DHT22;590;48.772;8.846;2022-08-06T08:11:24;24.60;7.70
254;DHT22;590;48.772;8.846;2022-08-06T08:14:15;24.40;7.60
254;DHT22;590;48.772;8.846;2022-08-06T08:16:45;24.60;7.90
254;DHT22;590;48.772;8.846;2022-08-06T08:19:22;25.10;7.10
254;DHT22;590;48.772;8.846;2022-08-06T08:21:53;25.20;5.70
254;DHT22;590;48.772;8.846;2022-08-06T08:24:24;25.10;6.60
254;DHT22;590;48.772;8.846;2022-08-06T08:26:53;25.10;5.60
254;DHT22;590;48.772;8.846;2022-08-06T08:29:42;25.00;5.60
254;DHT22;590;48.772;8.846;2022-08-06T08:32:21;24.90;6.50
254;DHT22;590;48.772;8.846;2022-08-06T08:34:49;25.10;6.40
254;DHT22;590;48.772;8.846;2022-08-06T08:37:19;25.00;5.50
254;DHT22;590;48.772;8.846;2022-08-06T08:39:49;24.50;6.90
254;DHT22;590;48.772;8.846;2022-08-06T08:42:27;24.60;6.90
254;DHT22;590;48.772;8.846;2022-08-06T08:44:59;24.80;7.00
254;DHT22;590;48.772;8.846;2022-08-06T08:47:29;24.80;5.90
254;DHT22;590;48.772;8.846;2022-08-06T08:50:19;24.80;5.40
254;DHT22;590;48.772;8.846;2022-08-06T08:52:50;24.70;5.70
254;DHT22;590;48.772;8.846;2022-08-06T08:55:23;24.80;5.60
254;DHT22;590;48.772;8.846;2022-08-06T08:58:12;24.80;5.70
254;DHT22;590;48.772;8.846;2022-08-06T09:01:00;24.70;5.30
254;DHT22;590;48.772;8.846;2022-08-06T09:03:29;24.60;5.80
254;DHT22;590;48.772;8.846;2022-08-06T09:05:58;24.90;6.00
254;DHT22;590;48.772;8.846;2022-08-06T09:08:27;25.10;5.30
254;DHT22;590;48.772;8.846;2022-08-06T09:11:16;25.30;5.20
254;DHT22;590;48.772;8.846;2022-08-06T09:14:07;25.20;3.40
254;DHT22;590;48.772;8.846;2022-08-06T09:16:36;24.90;4.90
254;DHT22;590;48.772;8.846;2022-08-06T09:19:16;24.60;3.40
254;DHT22;590;48.772;8.846;2022-08-06T09:21:46;24.30;4.70
254;DHT22;590;48.772;8.846;2022-08-06T09:24:17;24.30;2.90
254;DHT22;590;48.772;8.846;2022-08-06T09:27:04;24.40;3.00
254;DHT22;590;48.772;8.846;2022-08-06T09:29:54;24.60;3.50
254;DHT22;590;48.772;8.846;2022-08-06T09:32:39;24.70;3.20
254;DHT22;590;48.772;8.846;2022-08-06T09:35:25;24.90;3.70
254;DHT22;590;48.772;8.846;2022-08-06T09:38:13;25.20;2.70
254;DHT22;590;48.772;8.846;2022-08-06T09:41:01;25.30;2.50
254;DHT22;590;48.772;8.846;2022-08-06T09:43:34;25.60;2.70
254;DHT22;590;48.772;8.846;2022-08-06T09:46:36;25.70;2.50
254;DHT22;590;48.772;8.846;2022-08-06T09:49:04;25.40;2.00
254;DHT22;590;48.772;8.846;2022-08-06T09:52:10;25.00;3.00
254;DHT22;590;48.772;8.846;2022-08-06T09:54:40;24.60;2.30
254;DHT22;590;48.772;8.846;2022-08-06T09:57:08;24.70;3.40
254;DHT22;590;48.772;8.846;2022-08-06T09:59:45;24.80;2.90
254;DHT22;590;48.772;8.846;2022-08-06T10:02:17;24.70;2.00
254;DHT22;590;48.772;8.846;2022-08-06T10:05:07;24.70;2.90
254;DHT22;590;48.772;8.846;2022-08-06T10:07:44;24.60;2.40
254;DHT22;590;48.772;8.846;2022-08-06T10:10:19;24.70;2.50
254;DHT22;590;48.772;8.846;2022-08-06T10:13:15;25.00;2.30
254;DHT22;590;48.772;8.846;2022-08-06T10:15:47;24.80;2.60
254;DHT22;590;48.772;8.846;2022-08-06T10:18:32;24.70;2.00
254;DHT22;590;48.772;8.846;2022-08-06T10:21:22;24.50;1.90
254;DHT22;590;48.772;8.846;2022-08-06T10:23:54;24.30;2.80
254;DHT22;590;48.772;8.846;2022-08-06T10:26:26;24.20;2.90
254;DHT22;590;48.772;8.846;2022-08-06T10:29:01;24.20;2.80
254;DHT22;590;48.772;8.846;2022-08-06T10:31:33;24.40;2.80
254;DHT22;590;48.772;8.846;2022-08-06T10:34:06;24.60;2.70
254;DHT22;590;48.772;8.846;2022-08-06T10:36:44;24.80;2.10
254;DHT22;590;48.772;8.846;2022-08-06T10:39:15;25.00;1.80
254;DHT22;590;48.772;8.846;2022-08-06T10:42:04;25.30;1.00
254;DHT22;590;48.772;8.846;2022-08-06T10:45:06;25.40;1.00
254;DHT22;590;48.772;8.846;2022-08-06T10:47:45;25.20;1.00
254;DHT22;590;48.772;8.846;2022-08-06T10:50:34;25.20;1.20
254;DHT22;590;48.772;8.846;2022-08-06T10:53:18;25.10;1.00
254;DHT22;590;48.772;8.846;2022-08-06T10:56:08;24.90;1.50
254;DHT22;590;48.772;8.846;2022-08-06T10:58:38;24.60;1.50
254;DHT22;590;48.772;8.846;2022-08-06T11:01:08;24.40;2.20
254;DHT22;590;48.772;8.846;2022-08-06T11:10:23;24.50;1.80
254;DHT22;590;48.772;8.846;2022-08-06T11:12:58;24.80;1.80
254;DHT22;590;48.772;8.846;2022-08-06T11:15:33;25.00;1.60
254;DHT22;590;48.772;8.846;2022-08-06T11:18:05;25.00;1.00
254;DHT22;590;48.772;8.846;2022-08-06T11:20:40;24.80;1.00
254;DHT22;590;48.772;8.846;2022-08-06T11:23:31;24.90;1.10
254;DHT22;590;48.772;8.846;2022-08-06T11:26:33;25.10;1.70
254;DHT22;590;48.772;8.846;2022-08-06T11:29:06;25.50;1.30
254;DHT22;590;48.772;8.846;2022-08-06T11:31:40;25.50;1.00
254;DHT22;590;48.772;8.846;2022-08-06T11:34:41;25.40;1.00
254;DHT22;590;48.772;8.846;2022-08-06T11:37:43;25.40;1.10
254;DHT22;590;48.772;8.846;2022-08-06T11:40:54;25.60;1.00
254;DHT22;590;48.772;8.846;2022-08-06T11:43:47;25.60;1.00
254;DHT22;590;48.772;8.846;2022-08-06T11:46:31;25.60;1.00
254;DHT22;590;48.772;8.846;2022-08-06T11:49:13;25.60;1.00
254;DHT22;590;48.772;8.846;2022-08-06T11:51:48;25.50;1.00
254;DHT22;590;48.772;8.846;2022-08-06T11:54:33;25.50;1.00
254;DHT22;590;48.772;8.846;2022-08-06T11:57:24;25.50;1.00
254;DHT22;590;48.772;8.846;2022-08-06T12:00:15;25.30;1.00
254;DHT22;590;48.772;8.846;2022-08-06T12:03:06;25.30;1.00
254;DHT22;590;48.772;8.846;2022-08-06T12:05:42;25.40;1.00
254;DHT22;590;48.772;8.846;2022-08-06T12:08:26;25.50;1.00
254;DHT22;590;48.772;8.846;2022-08-06T12:11:25;25.40;1.00
254;DHT22;590;48.772;8.846;2022-08-06T12:14:04;25.30;1.00
254;DHT22;590;48.772;8.846;2022-08-06T12:16:52;25.30;1.00
254;DHT22;590;48.772;8.846;2022-08-06T12:19:28;25.20;1.00
254;DHT22;590;48.772;8.846;2022-08-06T12:21:58;25.30;1.00
254;DHT22;590;48.772;8.846;2022-08-06T12:24:28;25.50;1.00
254;DHT22;590;48.772;8.846;2022-08-06T12:27:18;25.60;1.00
254;DHT22;590;48.772;8.846;2022-08-06T12:29:56;25.60;1.00
254;DHT22;590;48.772;8.846;2022-08-06T12:32:27;25.50;1.00
254;DHT22;590;48.772;8.846;2022-08-06T12:34:57;25.20;1.00
254;DHT22;590;48.772;8.846;2022-08-06T12:37:33;25.20;1.00
254;DHT22;590;48.772;8.846;2022-08-06T12:40:15;25.30;1.00
254;DHT22;590;48.772;8.846;2022-08-06T12:43:10;25.40;1.00
254;DHT22;590;48.772;8.846;2022-08-06T12:45:43;25.50;1.00
254;DHT22;590;48.772;8.846;2022-08-06T12:48:32;25.70;1.00
254;DHT22;590;48.772;8.846;2022-08-06T12:51:02;25.80;1.00
254;DHT22;590;48.772;8.846;2022-08-06T12:53:38;25.80;1.00
254;DHT22;590;48.772;8.846;2022-08-06T12:56:13;25.70;1.00
254;DHT22;590;48.772;8.846;2022-08-06T12:58:56;25.60;1.00
254;DHT22;590;48.772;8.846;2022-08-06T13:01:27;25.50;1.00
254;DHT22;590;48.772;8.846;2022-08-06T13:04:16;25.50;1.00
254;DHT22;590;48.772;8.846;2022-08-06T13:06:47;25.50;1.00
254;DHT22;590;48.772;8.846;2022-08-06T13:09:17;25.60;1.00
254;DHT22;590;48.772;8.846;2022-08-06T13:12:11;25.60;1.00
254;DHT22;590;48.772;8.846;2022-08-06T13:14:56;25.50;1.00
254;DHT22;590;48.772;8.846;2022-08-06T13:17:39;25.50;1.00
254;DHT22;590;48.772;8.846;2022-08-06T13:20:35;25.60;1.00
254;DHT22;590;48.772;8.846;2022-08-06T13:23:04;25.60;1.00
254;DHT22;590;48.772;8.846;2022-08-06T13:25:41;25.70;1.00
254;DHT22;590;48.772;8.846;2022-08-06T13:28:20;25.70;1.00
254;DHT22;590;48.772;8.846;2022-08-06T13:30:55;25.70;1.00
254;DHT22;590;48.772;8.846;2022-08-06T13:33:28;25.70;1.00
254;DHT22;590;48.772;8.846;2022-08-06T13:36:06;25.70;1.00
254;DHT22;590;48.772;8.846;2022-08-06T13:38:38;25.70;1.00
254;DHT22;590;48.772;8.846;2022-08-06T13:41:08;25.70;1.00
254;DHT22;590;48.772;8.846;2022-08-06T13:43:39;25.70;1.00
254;DHT22;590;48.772;8.846;2022-08-06T13:46:20;25.90;1.00
254;DHT22;590;48.772;8.846;2022-08-06T13:48:57;25.80;1.00
254;DHT22;590;48.772;8.846;2022-08-06T13:51:29;25.70;1.00
254;DHT22;590;48.772;8.846;2022-08-06T13:54:02;25.70;1.00
254;DHT22;590;48.772;8.846;2022-08-06T13:56:45;25.60;1.00
254;DHT22;590;48.772;8.846;2022-08-06T13:59:19;25.30;1.00
254;DHT22;590;48.772;8.846;2022-08-06T14:02:07;25.30;1.00
254;DHT22;590;48.772;8.846;2022-08-06T14:04:39;25.40;1.00
254;DHT22;590;48.772;8.846;2022-08-06T14:07:16;25.50;1.00
254;DHT22;590;48.772;8.846;2022-08-06T14:09:46;25.60;1.00
254;DHT22;590;48.772;8.846;2022-08-06T14:12:34;25.60;1.00
254;DHT22;590;48.772;8.846;2022-08-06T14:15:05;25.60;1.00
254;DHT22;590;48.772;8.846;2022-08-06T14:17:38;25.50;1.00
254;DHT22;590;48.772;8.846;2022-08-06T14:20:12;25.50;1.00
254;DHT22;590;48.772;8.846;2022-08-06T14:22:49;25.40;1.00
254;DHT22;590;48.772;8.846;2022-08-06T14:25:18;25.30;1.00
254;DHT22;590;48.772;8.846;2022-08-06T14:27:46;25.20;1.00
254;DHT22;590;48.772;8.846;2022-08-06T14:30:16;25.20;1.00
254;DHT22;590;48.772;8.846;2022-08-06T14:32:59;25.30;1.00
254;DHT22;590;48.772;8.846;2022-08-06T14:35:46;25.40;1.00
254;DHT22;590;48.772;8.846;2022-08-06T14:38:18;25.40;1.00
254;DHT22;590;48.772;8.846;2022-08-06T14:40:46;25.30;1.00
254;DHT22;590;48.772;8.846;2022-08-06T14:43:36;25.20;1.00
254;DHT22;590;48.772;8.846;2022-08-06T14:46:28;25.00;1.00
254;DHT22;590;48.772;8.846;2022-08-06T14:48:58;25.00;1.00
254;DHT22;590;48.772;8.846;2022-08-06T14:51:39;24.90;1.00
254;DHT22;590;48.772;8.846;2022-08-06T14:54:28;24.80;1.00
254;DHT22;590;48.772;8.846;2022-08-06T14:56:59;24.80;1.00
254;DHT22;590;48.772;8.846;2022-08-06T14:59:28;24.80;1.00
254;DHT22;590;48.772;8.846;2022-08-06T15:02:08;24.90;1.00
254;DHT22;590;48.772;8.846;2022-08-06T15:04:37;24.90;1.00
254;DHT22;590;48.772;8.846;2022-08-06T15:07:08;24.80;1.00
254;DHT22;590;48.772;8.846;2022-08-06T15:09:51;24.90;1.00
254;DHT22;590;48.772;8.846;2022-08-06T15:12:39;25.00;1.00
254;DHT22;590;48.772;8.846;2022-08-06T15:15:18;25.00;1.00
254;DHT22;590;48.772;8.846;2022-08-06T15:18:06;24.90;1.00
254;DHT22;590;48.772;8.846;2022-08-06T15:20:54;24.90;1.00
254;DHT22;590;48.772;8.846;2022-08-06T15:23:24;24.80;1.00
254;DHT22;590;48.772;8.846;2022-08-06T15:26:11;24.80;1.00
254;DHT22;590;48.772;8.846;2022-08-06T15:28:59;24.70;1.00
254;DHT22;590;48.772;8.846;2022-08-06T15:31:30;24.60;1.00
254;DHT22;590;48.772;8.846;2022-08-06T15:33:59;24.60;1.00
254;DHT22;590;48.772;8.846;2022-08-06T15:36:33;24.60;1.00
254;DHT22;590;48.772;8.846;2022-08-06T15:39:03;24.70;1.00
254;DHT22;590;48.772;8.846;2022-08-06T15:41:36;24.70;1.00
254;DHT22;590;48.772;8.846;2022-08-06T15:44:09;24.70;1.00
254;DHT22;590;48.772;8.846;2022-08-06T15:46:38;24.60;1.00
254;DHT22;590;48.772;8.846;2022-08-06T15:49:07;24.60;1.00
254;DHT22;590;48.772;8.846;2022-08-06T15:51:37;24.60;1.00
254;DHT22;590;48.772;8.846;2022-08-06T15:54:07;24.60;1.00
254;DHT22;590;48.772;8.846;2022-08-06T15:56:35;24.60;1.00
254;DHT22;590;48.772;8.846;2022-08-06T15:59:17;24.50;1.00
254;DHT22;590;48.772;8.846;2022-08-06T16:01:47;24.60;1.00
254;DHT22;590;48.772;8.846;2022-08-06T16:04:32;24.60;1.00
254;DHT22;590;48.772;8.846;2022-08-06T16:07:03;24.50;1.00
254;DHT22;590;48.772;8.846;2022-08-06T16:09:33;24.50;1.00
254;DHT22;590;48.772;8.846;2022-08-06T16:12:22;24.50;1.00
254;DHT22;590;48.772;8.846;2022-08-06T16:15:06;24.50;1.00
254;DHT22;590;48.772;8.846;2022-08-06T16:17:35;24.50;1.00
254;DHT22;590;48.772;8.846;2022-08-06T16:20:23;24.50;1.00
254;DHT22;590;48.772;8.846;2022-08-06T16:22:59;24.40;1.00
254;DHT22;590;48.772;8.846;2022-08-06T16:25:39;24.40;1.00
254;DHT22;590;48.772;8.846;2022-08-06T16:28:27;24.40;1.00
254;DHT22;590;48.772;8.846;2022-08-06T16:30:59;24.40;1.00
254;DHT22;590;48.772;8.846;2022-08-06T16:33:41;24.40;1.00
254;DHT22;590;48.772;8.846;2022-08-06T16:36:21;24.40;1.00
254;DHT22;590;48.772;8.846;2022-08-06T16:38:58;24.40;1.00
254;DHT22;590;48.772;8.846;2022-08-06T16:41:28;24.30;1.00
254;DHT22;590;48.772;8.846;2022-08-06T16:44:16;24.40;1.00
254;DHT22;590;48.772;8.846;2022-08-06T16:47:01;24.30;1.00
254;DHT22;590;48.772;8.846;2022-08-06T16:49:32;24.30;1.00
254;DHT22;590;48.772;8.846;2022-08-06T16:52:20;24.30;1.00
254;DHT22;590;48.772;8.846;2022-08-06T16:55:09;24.30;1.00
254;DHT22;590;48.772;8.846;2022-08-06T16:57:39;24.20;1.00
254;DHT22;590;48.772;8.846;2022-08-06T17:00:16;24.20;1.00
254;DHT22;590;48.772;8.846;2022-08-06T17:03:04;24.20;1.00
254;DHT22;590;48.772;8.846;2022-08-06T17:05:53;24.20;1.00
254;DHT22;590;48.772;8.846;2022-08-06T17:08:26;24.20;1.00
254;DHT22;590;48.772;8.846;2022-08-06T17:10:54;24.20;1.00
254;DHT22;590;48.772;8.846;2022-08-06T17:13:27;24.20;1.00
254;DHT22;590;48.772;8.846;2022-08-06T17:16:05;24.20;1.00
254;DHT22;590;48.772;8.846;2022-08-06T17:18:38;24.20;1.00
254;DHT22;590;48.772;8.846;2022-08-06T17:21:15;24.20;1.00
254;DHT22;590;48.772;8.846;2022-08-06T17:23:48;24.10;1.00
254;DHT22;590;48.772;8.846;2022-08-06T17:26:17;24.10;1.00
254;DHT22;590;48.772;8.846;2022-08-06T17:29:02;24.10;1.00
254;DHT22;590;48.772;8.846;2022-08-06T17:31:31;24.10;1.00
254;DHT22;590;48.772;8.846;2022-08-06T17:34:19;24.10;1.00
254;DHT22;590;48.772;8.846;2022-08-06T17:36:54;24.00;1.00
254;DHT22;590;48.772;8.846;2022-08-06T17:39:23;24.00;1.00
254;DHT22;590;48.772;8.846;2022-08-06T17:42:04;24.00;1.00
254;DHT22;590;48.772;8.846;2022-08-06T17:44:46;23.90;1.00
254;DHT22;590;48.772;8.846;2022-08-06T17:47:16;23.90;1.00
254;DHT22;590;48.772;8.846;2022-08-06T17:49:46;23.80;1.00
254;DHT22;590;48.772;8.846;2022-08-06T17:52:15;23.80;1.00
254;DHT22;590;48.772;8.846;2022-08-06T17:54:56;23.70;1.00
254;DHT22;590;48.772;8.846;2022-08-06T17:57:25;23.70;1.00
254;DHT22;590;48.772;8.846;2022-08-06T18:00:15;23.60;1.00
254;DHT22;590;48.772;8.846;2022-08-06T18:03:03;23.60;1.00
254;DHT22;590;48.772;8.846;2022-08-06T18:05:39;23.50;1.00
254;DHT22;590;48.772;8.846;2022-08-06T18:08:08;23.50;1.00
254;DHT22;590;48.772;8.846;2022-08-06T18:10:56;23.50;1.00